Time;durP1;ratioP1;P1;durP2;ratioP2;P2;SDS_P1;SDS_P2;PMS_P1;PMS_P2;Temp;Humidity;BMP_temperature;BMP_pressure;BME280_temperature;BME280_humidity;BME280_pressure;Samples;Min_cycle;Max_cycle;Signal;HPM_P1;HPM_P2
2023/05/03 00:00:50;;;;;;;6.65;1.55;;;6.00;99.90;;;;;;6217191;22;20459;-84
2023/05/03 00:03:15;;;;;;;5.80;1.60;;;5.70;99.90;;;;;;6242767;22;20081;-84
2023/05/03 00:05:41;;;;;;;8.95;1.60;;;5.70;99.90;;;;;;6214774;22;20065;-84
2023/05/03 00:08:07;;;;;;;9.27;2.22;;;6.00;99.90;;;;;;6218130;22;20008;-84
2023/05/03 00:10:33;;;;;;;5.93;1.48;;;6.30;99.90;;;;;;6241743;22;20057;-84
2023/05/03 00:12:58;;;;;;;6.13;2.10;;;5.70;99.90;;;;;;6216767;22;20016;-85
2023/05/03 00:15:24;;;;;;;7.72;1.95;;;6.00;99.90;;;;;;6216687;22;20099;-84
2023/05/03 00:17:50;;;;;;;5.65;2.05;;;5.80;99.90;;;;;;6216943;22;20016;-85
2023/05/03 00:20:18;;;;;;;4.80;1.88;;;5.90;99.90;;;;;;6215099;22;20126;-84
2023/05/03 00:22:43;;;;;;;3.67;1.70;;;5.80;99.90;;;;;;6217195;22;20065;-85
2023/05/03 00:25:09;;;;;;;5.05;1.85;;;5.80;99.90;;;;;;6216093;22;20015;-85
2023/05/03 00:27:35;;;;;;;4.05;1.60;;;6.20;99.90;;;;;;6242461;22;20054;-85
2023/05/03 00:30:01;;;;;;;7.25;2.35;;;6.10;99.90;;;;;;6216753;22;20015;-85
2023/05/03 00:32:27;;;;;;;6.45;1.90;;;6.10;99.90;;;;;;6241197;22;20023;-85
2023/05/03 00:34:53;;;;;;;5.20;2.20;;;6.40;99.90;;;;;;6216918;22;20016;-85
2023/05/03 00:37:20;;;;;;;5.93;2.20;;;6.00;99.90;;;;;;6216899;22;20459;-85
2023/05/03 00:39:45;;;;;;;8.57;2.70;;;6.10;99.90;;;;;;6241786;22;20015;-84
2023/05/03 00:42:11;;;;;;;7.50;1.90;;;6.10;99.90;;;;;;6241509;22;20034;-85
2023/05/03 00:44:37;;;;;;;6.45;2.72;;;6.20;99.90;;;;;;6216817;22;20448;-85
2023/05/03 00:47:03;;;;;;;5.93;1.90;;;6.40;99.90;;;;;;6241386;22;20015;-85
2023/05/03 00:49:29;;;;;;;4.95;1.95;;;6.30;99.90;;;;;;6216756;22;20065;-84
2023/05/03 00:51:58;;;;;;;5.13;1.38;;;6.50;99.90;;;;;;6216500;22;20015;-85
2023/05/03 00:54:25;;;;;;;4.72;1.58;;;6.80;99.90;;;;;;6215098;22;20019;-84
2023/05/03 00:56:51;;;;;;;6.57;1.80;;;6.60;99.90;;;;;;6242395;22;20053;-85
2023/05/03 00:59:18;;;;;;;3.97;1.40;;;6.60;99.90;;;;;;6216580;22;20047;-84
2023/05/03 01:01:48;;;;;;;9.02;1.33;;;6.80;99.90;;;;;;6215702;22;20292;-85
2023/05/03 01:04:13;;;;;;;6.60;1.50;;;7.00;99.90;;;;;;6216597;22;20016;-84
2023/05/03 01:06:43;;;;;;;3.55;1.60;;;6.90;99.90;;;;;;6215815;22;20291;-84
2023/05/03 01:09:20;;;;;;;8.93;1.42;;;7.10;99.90;;;;;;6216085;22;20051;-85
2023/05/03 01:12:13;;;;;;;7.00;1.27;;;6.90;99.90;;;;;;6216810;22;20094;-85
2023/05/03 01:14:45;;;;;;;4.95;1.35;;;6.90;99.90;;;;;;6215490;22;20677;-85
2023/05/03 01:17:12;;;;;;;6.63;1.48;;;6.90;99.90;;;;;;6216832;22;20034;-84
2023/05/03 01:19:51;;;;;;;4.97;1.23;;;7.20;99.90;;;;;;6216713;22;20011;-84
2023/05/03 01:22:46;;;;;;;5.28;1.45;;;7.10;99.90;;;;;;6214692;22;20016;-84
2023/05/03 01:25:14;;;;;;;4.82;1.13;;;6.90;99.90;;;;;;6216313;22;20015;-85
2023/05/03 01:27:40;;;;;;;9.95;1.33;;;6.90;99.90;;;;;;6216413;22;20428;-85
2023/05/03 01:30:09;;;;;;;7.38;1.42;;;7.00;99.90;;;;;;6241075;22;20073;-85
2023/05/03 01:32:46;;;;;;;6.10;0.90;;;6.90;99.90;;;;;;6216144;22;20013;-85
2023/05/03 01:35:22;;;;;;;11.75;1.70;;;6.90;99.90;;;;;;6215260;22;20436;-85
2023/05/03 01:37:51;;;;;;;10.02;1.15;;;6.90;99.90;;;;;;6217169;22;20027;-85
2023/05/03 01:40:18;;;;;;;7.65;1.13;;;6.90;99.90;;;;;;6216254;22;20012;-85
2023/05/03 01:42:44;;;;;;;6.60;1.70;;;7.30;99.90;;;;;;6216153;22;20097;-85
2023/05/03 01:45:11;;;;;;;3.92;0.93;;;6.90;99.90;;;;;;6216246;22;20012;-85
2023/05/03 01:47:37;;;;;;;4.55;1.30;;;6.90;99.90;;;;;;6216672;22;20019;-84
2023/05/03 01:50:03;;;;;;;4.65;1.00;;;6.90;99.90;;;;;;6214861;22;20018;-84
2023/05/03 01:52:30;;;;;;;6.78;1.20;;;6.90;99.90;;;;;;6241224;22;20099;-85
2023/05/03 01:54:56;;;;;;;3.15;1.20;;;7.00;99.90;;;;;;6242201;22;20076;-85
2023/05/03 01:57:21;;;;;;;5.10;1.10;;;7.10;99.90;;;;;;6214313;22;20090;-84
2023/05/03 01:59:47;;;;;;;8.23;1.33;;;7.30;99.90;;;;;;6217123;22;20442;-84
2023/05/03 02:02:13;;;;;;;7.95;1.17;;;6.90;99.90;;;;;;6216032;22;20448;-84
2023/05/03 02:04:39;;;;;;;5.15;1.10;;;6.90;99.90;;;;;;6241052;22;20330;-84
2023/05/03 02:07:04;;;;;;;6.25;1.27;;;6.90;99.90;;;;;;6240945;22;20432;-83
2023/05/03 02:09:30;;;;;;;7.07;1.08;;;7.00;99.90;;;;;;6241079;22;20466;-83
2023/05/03 02:11:56;;;;;;;4.80;1.10;;;7.30;99.90;;;;;;6210533;23;20336;-84
2023/05/03 02:14:21;;;;;;;4.90;1.38;;;6.90;99.90;;;;;;6186062;23;20028;-84
2023/05/03 02:16:47;;;;;;;8.38;1.27;;;6.90;99.90;;;;;;6186013;23;20016;-84
2023/05/03 02:19:13;;;;;;;5.18;1.23;;;6.90;99.90;;;;;;6185396;23;20024;-85
2023/05/03 02:21:38;;;;;;;3.85;0.95;;;6.90;99.90;;;;;;6184536;23;20008;-84
2023/05/03 02:24:05;;;;;;;6.97;1.15;;;7.00;99.90;;;;;;6211820;23;20562;-83
2023/05/03 02:26:30;;;;;;;5.45;1.55;;;6.90;99.90;;;;;;6184661;23;20563;-84
2023/05/03 02:28:56;;;;;;;5.50;1.08;;;6.90;99.90;;;;;;6186545;23;20024;-84
2023/05/03 02:31:24;;;;;;;6.47;1.40;;;7.00;99.90;;;;;;6185255;23;20027;-85
2023/05/03 02:33:49;;;;;;;4.00;1.23;;;7.00;99.90;;;;;;6185285;23;20012;-85
2023/05/03 02:36:15;;;;;;;5.65;1.20;;;7.70;99.90;;;;;;6210192;23;20091;-85
2023/05/03 02:38:41;;;;;;;6.15;1.30;;;7.00;99.90;;;;;;6210560;23;20472;-85
2023/05/03 02:41:07;;;;;;;7.13;1.38;;;7.00;99.90;;;;;;6186092;23;20031;-84
2023/05/03 02:43:32;;;;;;;6.72;1.40;;;7.00;99.90;;;;;;6210921;23;20020;-85
2023/05/03 02:45:58;;;;;;;6.60;1.25;;;7.00;99.90;;;;;;6184848;23;20362;-84
2023/05/03 02:48:24;;;;;;;4.47;1.38;;;7.00;99.90;;;;;;6211020;23;20024;-84
2023/05/03 02:50:50;;;;;;;4.63;1.20;;;7.00;99.90;;;;;;6210527;23;20028;-84
2023/05/03 02:53:16;;;;;;;6.00;1.30;;;7.20;99.90;;;;;;6210296;23;20043;-84
2023/05/03 02:55:42;;;;;;;5.38;1.55;;;7.00;99.90;;;;;;6185637;23;20027;-84
2023/05/03 02:58:08;;;;;;;5.82;1.20;;;7.10;99.90;;;;;;6186109;23;20020;-85
2023/05/03 03:00:35;;;;;;;7.82;1.20;;;7.00;99.90;;;;;;6209638;23;20095;-84
2023/05/03 03:03:00;;;;;;;5.30;1.20;;;7.00;99.90;;;;;;6211557;23;20055;-84
2023/05/03 03:05:26;;;;;;;7.78;1.20;;;7.10;99.90;;;;;;6184529;23;20016;-85
2023/05/03 03:07:53;;;;;;;10.20;1.58;;;7.00;99.90;;;;;;6185586;23;20020;-85
2023/05/03 03:10:18;;;;;;;6.28;1.30;;;7.30;99.90;;;;;;6215889;23;20012;-84
2023/05/03 03:12:44;;;;;;;5.90;1.55;;;7.00;99.90;;;;;;6213051;23;20344;-85
2023/05/03 03:15:10;;;;;;;4.65;1.30;;;7.40;99.90;;;;;;6211558;23;20024;-84
2023/05/03 03:17:38;;;;;;;5.22;1.50;;;7.10;99.90;;;;;;6238260;23;20440;-84
2023/05/03 03:20:10;;;;;;;8.77;1.45;;;6.90;99.90;;;;;;6237386;23;20020;-84
2023/05/03 03:22:36;;;;;;;8.20;1.58;;;6.80;99.90;;;;;;6212149;23;20016;-84
2023/05/03 03:25:03;;;;;;;6.22;1.58;;;6.80;99.90;;;;;;6238135;23;20020;-83
2023/05/03 03:27:29;;;;;;;10.05;1.58;;;6.70;99.90;;;;;;6212542;23;20349;-84
2023/05/03 03:29:55;;;;;;;11.00;1.40;;;6.80;99.90;;;;;;6237146;23;20024;-83
2023/05/03 03:32:21;;;;;;;5.57;1.50;;;6.70;99.90;;;;;;6211767;23;20487;-84
2023/05/03 03:34:47;;;;;;;4.53;1.27;;;7.10;99.90;;;;;;6212946;23;20451;-84
2023/05/03 03:37:13;;;;;;;6.28;1.45;;;6.60;99.90;;;;;;6235916;23;20024;-84
2023/05/03 03:39:39;;;;;;;4.35;1.50;;;7.10;99.90;;;;;;6237931;23;20012;-84
2023/05/03 03:42:06;;;;;;;4.85;1.40;;;6.50;99.90;;;;;;6237260;23;20075;-84
2023/05/03 03:44:31;;;;;;;6.78;1.77;;;6.40;99.90;;;;;;6211664;23;20012;-84
2023/05/03 03:46:57;;;;;;;7.32;1.50;;;6.60;99.90;;;;;;6212669;23;20019;-84
2023/05/03 03:49:23;;;;;;;5.05;1.65;;;6.40;99.90;;;;;;6211200;23;20445;-85
2023/05/03 03:51:48;;;;;;;7.63;1.80;;;6.30;99.90;;;;;;6211425;23;20096;-84
2023/05/03 03:54:14;;;;;;;5.25;1.38;;;6.80;99.90;;;;;;6237678;23;20015;-84
2023/05/03 03:56:40;;;;;;;9.27;1.73;;;6.30;99.90;;;;;;6210868;23;20070;-84
2023/05/03 03:59:06;;;;;;;4.70;1.58;;;6.30;99.90;;;;;;6238237;23;20010;-84
2023/05/03 04:01:32;;;;;;;9.50;1.77;;;6.30;99.90;;;;;;6236826;23;20051;-85
2023/05/03 04:03:58;;;;;;;3.75;1.60;;;6.30;99.90;;;;;;6212010;23;20012;-85
2023/05/03 04:06:25;;;;;;;6.90;1.75;;;7.00;99.90;;;;;;6236023;23;20454;-85
2023/05/03 04:08:51;;;;;;;6.55;1.60;;;6.30;99.90;;;;;;6237671;23;20027;-85
2023/05/03 04:11:17;;;;;;;12.77;1.52;;;6.40;99.90;;;;;;6211348;23;20012;-85
2023/05/03 04:13:43;;;;;;;4.13;1.77;;;6.30;99.90;;;;;;6212222;23;20024;-84
2023/05/03 04:16:09;;;;;;;4.63;1.50;;;6.70;99.90;;;;;;6238040;23;20020;-84
2023/05/03 04:18:34;;;;;;;5.32;2.08;;;6.50;99.90;;;;;;6237147;23;20107;-84
2023/05/03 04:21:00;;;;;;;5.25;1.70;;;6.30;99.90;;;;;;6235921;23;20483;-84
2023/05/03 04:23:26;;;;;;;5.85;1.33;;;6.30;99.90;;;;;;6211907;23;20502;-84
2023/05/03 04:25:52;;;;;;;3.60;1.45;;;6.30;99.90;;;;;;6236116;23;20046;-85
2023/05/03 04:28:18;;;;;;;3.88;1.70;;;6.30;99.90;;;;;;6212433;23;20012;-84
2023/05/03 04:30:45;;;;;;;8.95;1.70;;;6.40;99.90;;;;;;6236010;23;20016;-84
2023/05/03 04:33:12;;;;;;;8.63;1.40;;;6.40;99.90;;;;;;6210701;23;20035;-83
2023/05/03 04:35:38;;;;;;;7.15;1.50;;;6.50;99.90;;;;;;6210301;23;20056;-84
2023/05/03 04:38:04;;;;;;;5.40;1.38;;;7.00;99.90;;;;;;6237282;23;20019;-84
2023/05/03 04:40:30;;;;;;;6.30;1.50;;;6.60;99.90;;;;;;6236374;23;20024;-84
2023/05/03 04:42:56;;;;;;;7.28;1.20;;;6.60;99.90;;;;;;6212807;23;20052;-84
2023/05/03 04:45:22;;;;;;;5.53;1.33;;;6.70;99.90;;;;;;6210953;23;20030;-85
2023/05/03 04:47:48;;;;;;;3.65;1.23;;;6.80;99.90;;;;;;6213352;23;20458;-85
2023/05/03 04:50:14;;;;;;;6.63;1.40;;;6.80;99.90;;;;;;6210997;23;20027;-85
2023/05/03 04:52:40;;;;;;;6.00;1.38;;;6.80;99.90;;;;;;6211592;23;20121;-84
2023/05/03 04:55:06;;;;;;;6.55;1.35;;;7.20;99.90;;;;;;6212526;23;20376;-85
2023/05/03 04:57:33;;;;;;;6.18;1.52;;;6.90;99.90;;;;;;6237084;23;20688;-85
2023/05/03 04:59:59;;;;;;;7.57;1.48;;;6.90;99.90;;;;;;6211789;23;20020;-84
2023/05/03 05:02:25;;;;;;;7.05;1.27;;;7.00;99.90;;;;;;6211828;23;20008;-86
2023/05/03 05:04:52;;;;;;;4.90;1.30;;;7.00;99.90;;;;;;6212614;23;20440;-86
2023/05/03 05:07:18;;;;;;;5.05;1.27;;;7.10;99.90;;;;;;6235917;23;20504;-85
2023/05/03 05:09:43;;;;;;;3.78;1.20;;;7.10;99.90;;;;;;6240271;22;20058;-84
2023/05/03 05:12:09;;;;;;;4.90;1.20;;;7.20;99.90;;;;;;6243122;22;20066;-84
2023/05/03 05:14:35;;;;;;;5.05;1.10;;;7.20;99.90;;;;;;6216030;22;20401;-85
2023/05/03 05:17:01;;;;;;;6.57;1.27;;;7.20;99.90;;;;;;6243127;22;20094;-85
2023/05/03 05:19:27;;;;;;;5.82;0.90;;;7.30;99.90;;;;;;6238672;22;20007;-85
2023/05/03 05:21:54;;;;;;;8.93;1.40;;;7.30;99.90;;;;;;6215326;22;20440;-85
2023/05/03 05:24:20;;;;;;;4.68;1.20;;;7.30;99.90;;;;;;6216785;22;20011;-85
2023/05/03 05:26:46;;;;;;;7.03;1.08;;;7.50;99.90;;;;;;6217170;22;20379;-85
2023/05/03 05:29:11;;;;;;;4.03;0.80;;;7.40;99.90;;;;;;6216653;22;20042;-84
2023/05/03 05:31:37;;;;;;;7.57;1.38;;;7.40;99.90;;;;;;6216119;22;20016;-85
2023/05/03 05:34:03;;;;;;;3.10;0.85;;;7.40;99.90;;;;;;6216945;22;20127;-85
2023/05/03 05:36:29;;;;;;;4.75;0.82;;;7.50;99.90;;;;;;6239611;22;20452;-85
2023/05/03 05:38:55;;;;;;;5.55;0.90;;;7.50;99.90;;;;;;6241972;22;20019;-85
2023/05/03 05:41:21;;;;;;;3.97;0.77;;;7.60;99.90;;;;;;6216091;22;20015;-85
2023/05/03 05:43:47;;;;;;;4.30;1.00;;;7.60;99.90;;;;;;6215816;22;20050;-85
2023/05/03 05:46:12;;;;;;;2.85;0.68;;;7.70;99.90;;;;;;6216239;22;20038;-85
2023/05/03 05:48:40;;;;;;;5.43;1.20;;;7.80;99.90;;;;;;6215831;22;20511;-85
2023/05/03 05:51:06;;;;;;;10.05;1.48;;;7.80;99.90;;;;;;6215520;22;20020;-84
2023/05/03 05:53:31;;;;;;;6.53;1.13;;;7.90;99.90;;;;;;6242318;22;20012;-84
2023/05/03 05:55:57;;;;;;;6.18;0.85;;;7.90;99.90;;;;;;6215695;22;20456;-84
2023/05/03 05:58:23;;;;;;;4.82;0.93;;;7.90;99.90;;;;;;6217035;22;20020;-85
2023/05/03 06:00:49;;;;;;;4.47;0.70;;;7.90;99.90;;;;;;6242469;22;20020;-84
2023/05/03 06:03:15;;;;;;;3.05;0.70;;;8.00;99.90;;;;;;6216181;22;20094;-85
2023/05/03 06:05:41;;;;;;;6.65;0.90;;;8.10;99.90;;;;;;6241492;22;20527;-85
2023/05/03 06:08:07;;;;;;;8.77;1.00;;;8.10;99.90;;;;;;6217371;22;20019;-86
2023/05/03 06:10:33;;;;;;;4.70;0.77;;;8.20;99.90;;;;;;6215724;22;20019;-85
2023/05/03 06:12:59;;;;;;;1.40;0.52;;;8.30;99.90;;;;;;6217835;22;20066;-83
2023/05/03 06:15:25;;;;;;;3.38;0.70;;;8.30;99.90;;;;;;6216935;22;20020;-85
2023/05/03 06:17:51;;;;;;;9.00;0.80;;;8.60;99.90;;;;;;6217880;22;20104;-86
2023/05/03 06:20:17;;;;;;;17.27;1.23;;;8.50;99.90;;;;;;6214513;22;20027;-85
2023/05/03 06:22:42;;;;;;;3.33;0.70;;;8.60;99.90;;;;;;6217521;22;20012;-86
2023/05/03 06:25:09;;;;;;;4.82;0.68;;;8.80;99.90;;;;;;6215423;22;20015;-86
2023/05/03 06:27:37;;;;;;;6.95;0.85;;;8.90;99.90;;;;;;6217093;22;20015;-84
2023/05/03 06:30:03;;;;;;;4.80;0.80;;;8.90;99.90;;;;;;6217630;22;20349;-86
2023/05/03 06:32:28;;;;;;;2.85;0.70;;;9.00;99.90;;;;;;6215317;22;20015;-86
2023/05/03 06:34:54;;;;;;;5.10;0.70;;;9.10;99.90;;;;;;6216861;22;20024;-85
2023/05/03 06:37:21;;;;;;;6.72;0.77;;;9.10;99.90;;;;;;6215805;22;20020;-85
2023/05/03 06:39:49;;;;;;;2.92;0.68;;;9.10;99.90;;;;;;6216402;22;20069;-85
2023/05/03 06:42:14;;;;;;;8.65;0.80;;;9.10;99.90;;;;;;6216840;22;20016;-86
2023/05/03 06:44:41;;;;;;;6.95;0.80;;;9.10;99.90;;;;;;6218139;22;20035;-85
2023/05/03 06:47:07;;;;;;;9.55;0.85;;;9.20;99.90;;;;;;6218448;22;20019;-86
2023/05/03 06:49:32;;;;;;;8.18;1.23;;;9.20;99.90;;;;;;6243232;22;20373;-84
2023/05/03 06:51:58;;;;;;;5.38;1.00;;;9.30;99.90;;;;;;6216024;22;20016;-83
2023/05/03 06:54:24;;;;;;;6.75;1.00;;;9.40;99.90;;;;;;6242273;22;20015;-83
2023/05/03 06:56:50;;;;;;;5.07;0.88;;;9.40;99.90;;;;;;6217691;22;20019;-84
2023/05/03 06:59:16;;;;;;;6.57;0.80;;;9.40;99.90;;;;;;6243399;22;20440;-84
2023/05/03 07:01:42;;;;;;;14.90;1.23;;;9.50;99.90;;;;;;6218238;22;20106;-84
2023/05/03 07:04:08;;;;;;;5.20;1.27;;;9.50;99.90;;;;;;6219534;22;20282;-84
2023/05/03 07:06:33;;;;;;;5.60;0.80;;;9.60;99.90;;;;;;6241535;22;20069;-84
2023/05/03 07:08:59;;;;;;;10.82;1.23;;;9.70;99.90;;;;;;6244245;22;20016;-85
2023/05/03 07:11:25;;;;;;;13.05;1.08;;;9.80;99.90;;;;;;6243174;22;20035;-85
2023/05/03 07:13:51;;;;;;;7.00;1.00;;;9.80;99.90;;;;;;6217726;22;20027;-84
2023/05/03 07:16:18;;;;;;;5.28;0.93;;;10.00;99.90;;;;;;6218545;22;20405;-84
2023/05/03 07:18:45;;;;;;;4.90;0.77;;;9.90;99.90;;;;;;6243466;22;20012;-84
2023/05/03 07:21:10;;;;;;;20.63;1.42;;;9.90;99.90;;;;;;6216582;22;20039;-84
2023/05/03 07:23:36;;;;;;;12.85;1.20;;;10.20;99.90;;;;;;6219311;22;20011;-84
2023/05/03 07:26:02;;;;;;;3.95;0.95;;;10.00;99.90;;;;;;6218642;22;20008;-83
2023/05/03 07:28:28;;;;;;;7.63;0.80;;;10.00;99.90;;;;;;6242213;22;20028;-85
2023/05/03 07:30:54;;;;;;;2.80;0.77;;;10.10;99.90;;;;;;6218151;22;20012;-86
2023/05/03 07:33:20;;;;;;;5.25;0.98;;;10.20;99.90;;;;;;6218090;22;20020;-85
2023/05/03 07:35:47;;;;;;;7.78;0.70;;;10.20;99.90;;;;;;6216632;22;20394;-84
2023/05/03 07:38:12;;;;;;;7.55;1.02;;;10.20;99.90;;;;;;6217487;22;20043;-85
2023/05/03 07:40:38;;;;;;;4.07;0.73;;;10.20;99.90;;;;;;6218050;22;20073;-85
2023/05/03 07:43:04;;;;;;;2.67;0.32;;;10.20;99.90;;;;;;6216903;22;20110;-85
2023/05/03 07:45:30;;;;;;;9.80;0.73;;;10.30;99.90;;;;;;6217463;22;20102;-85
2023/05/03 07:47:56;;;;;;;4.25;0.57;;;10.30;99.90;;;;;;6218549;22;20030;-84
2023/05/03 07:50:21;;;;;;;5.88;0.77;;;10.40;99.90;;;;;;6240117;22;20035;-86
2023/05/03 07:52:50;;;;;;;3.72;0.68;;;10.40;99.90;;;;;;6218755;22;20507;-85
2023/05/03 07:55:19;;;;;;;3.67;0.90;;;10.50;99.90;;;;;;6216098;22;20039;-86
2023/05/03 07:57:44;;;;;;;5.68;0.70;;;10.40;99.90;;;;;;6217844;22;20101;-86
2023/05/03 08:00:11;;;;;;;3.60;0.70;;;10.60;99.90;;;;;;6217446;22;20390;-85
2023/05/03 08:02:37;;;;;;;3.70;0.73;;;10.60;99.90;;;;;;6242904;22;20073;-85
2023/05/03 08:05:04;;;;;;;5.13;0.68;;;10.70;99.90;;;;;;6217331;22;20020;-85
2023/05/03 08:07:31;;;;;;;6.57;0.80;;;10.70;99.90;;;;;;6217457;22;20034;-86
2023/05/03 08:09:57;;;;;;;5.70;0.65;;;10.70;99.90;;;;;;6211406;23;20031;-85
2023/05/03 08:12:26;;;;;;;11.30;1.08;;;10.70;99.90;;;;;;6211553;23;20012;-85
2023/05/03 08:14:53;;;;;;;6.43;0.90;;;11.00;99.90;;;;;;6213165;23;20577;-85
2023/05/03 08:17:19;;;;;;;6.28;1.00;;;10.80;99.90;;;;;;6235996;23;20015;-84
2023/05/03 08:19:46;;;;;;;8.20;0.98;;;11.00;99.90;;;;;;6238655;23;20345;-84
2023/05/03 08:22:11;;;;;;;6.75;0.93;;;10.80;99.90;;;;;;6211876;23;20020;-84
2023/05/03 08:24:38;;;;;;;5.70;0.70;;;10.80;99.90;;;;;;6236779;23;20012;-85
2023/05/03 08:27:05;;;;;;;9.80;0.93;;;10.80;99.90;;;;;;6213256;23;20012;-85
2023/05/03 08:29:31;;;;;;;5.20;0.98;;;10.80;99.90;;;;;;6237438;23;20024;-85
2023/05/03 08:31:57;;;;;;;2.38;0.60;;;10.90;99.90;;;;;;6211520;23;20012;-85
2023/05/03 08:34:24;;;;;;;9.57;2.05;;;10.80;99.90;;;;;;6211921;23;20020;-86
2023/05/03 08:36:50;;;;;;;3.83;1.00;;;10.80;99.90;;;;;;6212465;23;20523;-85
2023/05/03 08:39:17;;;;;;;3.38;0.98;;;10.80;99.90;;;;;;6212138;23;20022;-85
2023/05/03 08:41:43;;;;;;;6.25;0.80;;;10.80;99.90;;;;;;6212434;23;20013;-85
2023/05/03 08:44:11;;;;;;;9.20;0.80;;;10.70;99.90;;;;;;6213372;23;20024;-84
2023/05/03 08:46:37;;;;;;;3.53;0.70;;;10.70;99.90;;;;;;6210838;23;20103;-86
2023/05/03 08:49:05;;;;;;;7.78;1.10;;;10.60;99.90;;;;;;6238631;23;20090;-85
2023/05/03 08:51:33;;;;;;;10.90;0.90;;;10.60;99.90;;;;;;6210504;23;20103;-86
2023/05/03 08:53:59;;;;;;;7.60;1.30;;;10.50;99.90;;;;;;6212643;23;20023;-85
2023/05/03 08:56:32;;;;;;;5.50;0.88;;;10.60;99.90;;;;;;6212987;23;20020;-86
2023/05/03 08:59:06;;;;;;;8.20;1.08;;;10.60;99.90;;;;;;6213478;23;20008;-85
2023/05/03 09:01:33;;;;;;;5.20;0.80;;;10.60;99.90;;;;;;6212121;23;20023;-86
2023/05/03 09:03:58;;;;;;;6.90;0.90;;;10.60;99.90;;;;;;6238470;23;20695;-85
2023/05/03 09:06:25;;;;;;;6.85;1.10;;;10.70;99.90;;;;;;6206858;23;20460;-85
2023/05/03 09:08:51;;;;;;;9.70;1.13;;;10.70;99.90;;;;;;6212953;23;20020;-86
2023/05/03 09:11:21;;;;;;;11.82;1.63;;;10.70;99.90;;;;;;6236248;23;20030;-85
2023/05/03 09:13:47;;;;;;;5.95;0.95;;;10.70;99.90;;;;;;6211827;23;20540;-85
2023/05/03 09:16:22;;;;;;;7.63;1.45;;;10.80;99.90;;;;;;6210586;23;20060;-85
2023/05/03 09:18:56;;;;;;;6.30;0.75;;;10.80;99.90;;;;;;6211435;23;20027;-85
2023/05/03 09:21:22;;;;;;;7.57;0.73;;;10.80;99.90;;;;;;6209334;23;20094;-85
2023/05/03 09:23:47;;;;;;;190.35;15.13;;;10.80;99.90;;;;;;6211649;23;20421;-86
2023/05/03 09:26:27;;;;;;;3.10;1.27;;;10.90;99.90;;;;;;6210714;23;20108;-85
2023/05/03 09:28:53;;;;;;;6.05;1.00;;;10.90;99.90;;;;;;6210590;23;20139;-85
2023/05/03 09:31:19;;;;;;;4.60;0.90;;;10.90;99.90;;;;;;6210133;23;20020;-85
2023/05/03 09:33:45;;;;;;;5.30;1.05;;;10.90;99.90;;;;;;6210393;23;20027;-84
2023/05/03 09:36:10;;;;;;;7.03;1.02;;;10.90;99.90;;;;;;6210290;23;20361;-85
2023/05/03 09:38:36;;;;;;;8.52;1.15;;;10.90;99.90;;;;;;6237957;23;20694;-84
2023/05/03 09:41:04;;;;;;;5.43;0.63;;;11.00;99.90;;;;;;6236105;23;20761;-85
2023/05/03 09:43:30;;;;;;;6.85;0.88;;;11.00;99.90;;;;;;6212318;23;20020;-84
2023/05/03 09:46:10;;;;;;;22.55;1.98;;;11.10;99.90;;;;;;6212179;23;20015;-84
2023/05/03 09:48:37;;;;;;;6.03;1.20;;;11.20;99.90;;;;;;6237550;23;20099;-84
2023/05/03 09:51:05;;;;;;;5.97;1.00;;;11.30;99.90;;;;;;6212767;23;20491;-84
2023/05/03 09:53:33;;;;;;;7.97;1.58;;;11.30;99.90;;;;;;6237607;23;20089;-84
2023/05/03 09:56:02;;;;;;;4.32;1.15;;;11.40;99.90;;;;;;6236361;23;20129;-84
2023/05/03 09:58:29;;;;;;;3.42;0.75;;;11.50;99.90;;;;;;6235380;23;20024;-85
2023/05/03 10:00:56;;;;;;;5.13;0.80;;;11.60;99.90;;;;;;6211814;23;20024;-85
2023/05/03 10:03:36;;;;;;;6.88;0.70;;;11.70;99.90;;;;;;6211160;23;20012;-86
2023/05/03 10:06:05;;;;;;;6.82;1.15;;;11.70;99.90;;;;;;6212151;23;20027;-87
2023/05/03 10:08:40;;;;;;;6.78;1.17;;;11.80;99.90;;;;;;6236462;23;20480;-86
2023/05/03 10:11:12;;;;;;;5.47;1.10;;;11.80;99.90;;;;;;6212413;23;20013;-86
2023/05/03 10:13:38;;;;;;;3.85;0.80;;;11.90;99.90;;;;;;6237701;23;20094;-85
2023/05/03 10:16:10;;;;;;;5.57;1.05;;;12.10;99.90;;;;;;6236800;23;20090;-85
2023/05/03 10:18:46;;;;;;;4.10;0.70;;;12.10;99.90;;;;;;6213139;23;20016;-85
2023/05/03 10:21:20;;;;;;;9.63;1.45;;;12.20;99.90;;;;;;6213563;23;20012;-85
2023/05/03 10:24:10;;;;;;;4.53;1.17;;;12.30;99.90;;;;;;6213909;23;20463;-86
2023/05/03 10:26:35;;;;;;;7.80;1.00;;;12.30;99.90;;;;;;6213573;23;20456;-85
2023/05/03 10:29:01;;;;;;;7.80;0.93;;;12.40;99.90;;;;;;6239686;23;20066;-86
2023/05/03 10:31:44;;;;;;;2.92;0.80;;;12.50;99.90;;;;;;6212364;23;20024;-85
2023/05/03 10:34:20;;;;;;;;;;;12.50;99.90;;;;;;6214414;23;20332;-86
2023/05/03 10:36:49;;;;;;;7.53;1.02;;;12.50;99.90;;;;;;6240228;23;19990;-85
2023/05/03 10:39:17;;;;;;;10.35;0.90;;;12.50;99.90;;;;;;6213748;23;20091;-85
2023/05/03 10:41:42;;;;;;;7.85;0.90;;;12.60;99.90;;;;;;6214463;23;20070;-86
2023/05/03 10:44:26;;;;;;;4.47;0.95;;;12.60;99.90;;;;;;6213325;23;20051;-86
2023/05/03 10:46:53;;;;;;;8.07;1.02;;;12.70;99.90;;;;;;6213690;23;20267;-86
2023/05/03 10:49:21;;;;;;;4.55;0.60;;;12.80;99.90;;;;;;6214724;23;20018;-86
2023/05/03 10:51:47;;;;;;;4.80;0.95;;;12.80;99.90;;;;;;6212657;23;20020;-84
2023/05/03 10:54:13;;;;;;;9.30;1.30;;;12.90;99.90;;;;;;6214474;23;20012;-85
2023/05/03 10:56:53;;;;;;;9.43;0.77;;;12.90;99.90;;;;;;6213698;23;20451;-84
2023/05/03 10:59:20;;;;;;;7.63;1.08;;;12.90;99.90;;;;;;6213204;23;20011;-85
2023/05/03 11:01:49;;;;;;;6.53;0.90;;;12.80;99.90;;;;;;6214097;23;20445;-86
2023/05/03 11:04:21;;;;;;;37.45;2.35;;;12.90;99.90;;;;;;6239415;23;20078;-85
2023/05/03 11:06:50;;;;;;;5.47;0.70;;;12.90;99.90;;;;;;6212844;23;20388;-86
2023/05/03 11:09:16;;;;;;;7.03;0.90;;;12.90;99.90;;;;;;6214017;23;20016;-85
2023/05/03 11:11:42;;;;;;;25.17;1.65;;;13.00;99.90;;;;;;6238866;23;20020;-85
2023/05/03 11:14:09;;;;;;;6.15;1.17;;;13.10;99.90;;;;;;6214051;23;20016;-86
2023/05/03 11:16:35;;;;;;;5.20;1.00;;;13.30;99.90;;;;;;6237891;23;20020;-85
2023/05/03 11:19:02;;;;;;;6.22;1.13;;;13.40;99.90;;;;;;6214336;23;20104;-86
2023/05/03 11:21:28;;;;;;;7.50;1.10;;;13.40;99.90;;;;;;6237923;23;20020;-87
2023/05/03 11:23:53;;;;;;;8.10;1.20;;;13.10;99.90;;;;;;6239728;23;20058;-85
2023/05/03 11:26:24;;;;;;;6.75;1.10;;;13.00;99.90;;;;;;6212546;23;20016;-86
2023/05/03 11:28:50;;;;;;;5.65;0.90;;;12.90;99.90;;;;;;6214013;23;20445;-86
2023/05/03 11:31:16;;;;;;;4.72;0.93;;;12.90;99.90;;;;;;6212853;23;20012;-86
2023/05/03 11:33:42;;;;;;;8.93;1.13;;;12.70;99.90;;;;;;6212925;23;20019;-86
2023/05/03 11:36:08;;;;;;;4.13;1.00;;;12.80;99.90;;;;;;6238694;23;20102;-87
2023/05/03 11:38:36;;;;;;;5.75;1.00;;;12.60;99.90;;;;;;6238168;23;20047;-86
2023/05/03 11:41:13;;;;;;;7.15;1.10;;;12.60;99.90;;;;;;6212859;23;20059;-85
2023/05/03 11:43:42;;;;;;;11.02;1.52;;;12.70;99.90;;;;;;6216056;23;20297;-86
2023/05/03 11:46:08;;;;;;;5.40;1.02;;;12.80;99.90;;;;;;6239277;23;20091;-86
2023/05/03 11:48:34;;;;;;;3.47;1.08;;;12.80;99.90;;;;;;6211797;23;20024;-86
2023/05/03 11:51:08;;;;;;;7.95;0.95;;;12.90;99.90;;;;;;6213041;23;20020;-87
2023/05/03 11:53:36;;;;;;;4.63;0.95;;;13.10;99.90;;;;;;6213372;23;20016;-86
2023/05/03 11:56:02;;;;;;;6.35;1.30;;;13.10;99.90;;;;;;6212600;23;20016;-86
2023/05/03 11:58:28;;;;;;;6.15;1.52;;;12.90;99.90;;;;;;6212826;23;20022;-87
2023/05/03 12:00:55;;;;;;;5.38;1.33;;;13.00;99.90;;;;;;6213720;23;20294;-87
2023/05/03 12:03:22;;;;;;;7.47;1.10;;;13.00;99.90;;;;;;6211355;23;20111;-86
2023/05/03 12:05:49;;;;;;;7.18;1.27;;;13.10;99.90;;;;;;6212773;23;20336;-86
2023/05/03 12:08:17;;;;;;;9.90;1.20;;;13.10;99.90;;;;;;6212557;23;20067;-86
2023/05/03 12:10:43;;;;;;;9.38;1.10;;;13.00;99.90;;;;;;6212552;23;20019;-86
2023/05/03 12:13:10;;;;;;;5.15;1.20;;;13.00;99.90;;;;;;6213321;23;20345;-86
2023/05/03 12:15:37;;;;;;;5.72;1.10;;;13.00;99.90;;;;;;6211625;23;20012;-87
2023/05/03 12:18:07;;;;;;;4.22;1.10;;;13.10;99.90;;;;;;6238979;23;20018;-87
2023/05/03 12:20:35;;;;;;;7.82;1.35;;;13.10;99.90;;;;;;6212391;23;20016;-86
2023/05/03 12:23:04;;;;;;;8.25;1.35;;;13.20;99.90;;;;;;6237903;23;20016;-86
2023/05/03 12:25:31;;;;;;;9.52;1.08;;;13.40;99.90;;;;;;6213041;23;20027;-87
2023/05/03 12:27:58;;;;;;;10.60;1.20;;;13.50;99.90;;;;;;6238905;23;20012;-86
2023/05/03 12:30:25;;;;;;;4.43;1.23;;;13.50;99.90;;;;;;6211540;23;20016;-85
2023/05/03 12:32:51;;;;;;;7.82;1.33;;;13.60;99.90;;;;;;6237768;23;20042;-87
2023/05/03 12:35:19;;;;;;;5.53;1.08;;;13.60;99.90;;;;;;6212158;23;20449;-86
2023/05/03 12:37:45;;;;;;;6.35;1.40;;;13.50;99.90;;;;;;6212594;23;20441;-86
2023/05/03 12:40:12;;;;;;;7.53;1.05;;;13.40;99.90;;;;;;6238505;23;20024;-85
2023/05/03 12:42:40;;;;;;;6.40;1.20;;;13.40;99.90;;;;;;6213396;23;20012;-85
2023/05/03 12:45:07;;;;;;;11.50;1.98;;;13.50;99.90;;;;;;6212746;23;20020;-84
2023/05/03 12:47:33;;;;;;;5.47;1.15;;;13.50;99.90;;;;;;6236932;23;20027;-85
2023/05/03 12:50:01;;;;;;;16.80;1.58;;;13.60;99.90;;;;;;6238868;23;20326;-84
2023/05/03 12:52:27;;;;;;;8.52;1.50;;;13.70;99.90;;;;;;6211696;23;20031;-84